Time;durP1;ratioP1;P1;durP2;ratioP2;P2;SDS_P1;SDS_P2;PMS_P1;PMS_P2;Temp;Humidity;BMP_temperature;BMP_pressure;BME280_temperature;BME280_humidity;BME280_pressure;Samples;Min_cycle;Max_cycle;Signal;HPM_P1;HPM_P2
2024/01/21 00:02:26;;;;;;;;;36.75;29.50;;;;;;;;5090404;28;28526;-83
2024/01/21 00:05:01;;;;;;;;;37.25;34.50;;;;;;;;5088716;28;28581;-82
2024/01/21 00:07:27;;;;;;;;;33.75;32.00;;;;;;;;5089944;28;29906;-83
2024/01/21 00:10:23;;;;;;;;;;;;;;;;;;;;;
2024/01/21 00:12:59;;;;;;;;;38.00;33.00;;;;;;;;5089525;28;54430;-81
2024/01/21 00:15:24;;;;;;;;;37.25;32.00;;;;;;;;5089293;28;28538;-82
2024/01/21 00:18:07;;;;;;;;;42.75;33.50;;;;;;;;5089894;27;28578;-82
2024/01/21 00:20:33;;;;;;;;;45.50;37.00;;;;;;;;5089033;27;28924;-83
2024/01/21 00:23:01;;;;;;;;;32.50;30.50;;;;;;;;5079790;28;28883;-82
2024/01/21 00:25:39;;;;;;;;;;;;;;;;;;;;;
2024/01/21 00:28:08;;;;;;;;;37.50;33.50;;;;;;;;5091567;27;56648;-83
2024/01/21 00:31:07;;;;;;;;;;;;;;;;;;;;;
2024/01/21 00:33:48;;;;;;;;;32.00;28.00;;;;;;;;5071027;27;53440;-83
2024/01/21 00:36:18;;;;;;;;;42.75;34.00;;;;;;;;5091075;27;28929;-83
2024/01/21 00:38:45;;;;;;;;;33.50;26.25;;;;;;;;5093356;27;29888;-83
2024/01/21 00:41:30;;;;;;;;;;;;;;;;;;;;;
2024/01/21 00:43:58;;;;;;;;;43.50;35.50;;;;;;;;5083103;28;54209;-82
2024/01/21 00:46:44;;;;;;;;;35.75;26.75;;;;;;;;5093636;28;28733;-83
2024/01/21 00:49:20;;;;;;;;;;;;;;;;;;;;;
2024/01/21 00:51:52;;;;;;;;;22.00;21.25;;;;;;;;5094088;28;55500;-82
2024/01/21 00:57:22;;;;;;;;;27.25;23.75;;;;;;;;5089835;28;28867;-83
2024/01/21 01:00:25;;;;;;;;;33.50;30.25;;;;;;;;5090730;28;28896;-82
2024/01/21 01:03:04;;;;;;;;;33.25;26.75;;;;;;;;5088297;28;28924;-84
2024/01/21 01:06:07;;;;;;;;;;;;;;;;;;;;;
2024/01/21 01:08:39;;;;;;;;;29.75;21.00;;;;;;;;5061505;27;56093;-81
2024/01/21 01:11:20;;;;;;;;;28.25;25.25;;;;;;;;5098379;28;30175;-81
2024/01/21 01:13:46;;;;;;;;;33.25;28.00;;;;;;;;5077991;27;28493;-81
2024/01/21 01:16:11;;;;;;;;;39.00;27.50;;;;;;;;5084504;28;29178;-81
2024/01/21 01:18:37;;;;;;;;;25.50;23.50;;;;;;;;5078748;28;28536;-81
2024/01/21 01:21:02;;;;;;;;;32.75;24.25;;;;;;;;5087895;28;29830;-80
2024/01/21 01:23:30;;;;;;;;;30.25;25.50;;;;;;;;5087981;27;28583;-81
2024/01/21 01:25:55;;;;;;;;;35.25;29.50;;;;;;;;5088296;27;28797;-81
2024/01/21 01:28:20;;;;;;;;;34.50;29.25;;;;;;;;5083802;28;29615;-82
2024/01/21 01:30:46;;;;;;;;;35.75;28.75;;;;;;;;5086413;28;28465;-81
2024/01/21 01:33:11;;;;;;;;;28.00;24.00;;;;;;;;5085805;27;29742;-82
2024/01/21 01:35:36;;;;;;;;;30.75;26.00;;;;;;;;5095325;27;28828;-82
2024/01/21 01:38:01;;;;;;;;;30.75;26.75;;;;;;;;5087888;27;28810;-82
2024/01/21 01:40:26;;;;;;;;;29.00;21.75;;;;;;;;5079972;28;28607;-80
2024/01/21 01:42:56;;;;;;;;;29.25;23.75;;;;;;;;5088643;27;28613;-83
2024/01/21 01:45:23;;;;;;;;;33.25;33.00;;;;;;;;5088873;27;28583;-80
2024/01/21 01:47:49;;;;;;;;;29.75;20.75;;;;;;;;5087342;28;28633;-81
2024/01/21 01:50:15;;;;;;;;;31.50;26.50;;;;;;;;5089061;27;29280;-82
2024/01/21 01:52:40;;;;;;;;;30.75;24.25;;;;;;;;5082443;27;28668;-82
2024/01/21 01:55:06;;;;;;;;;29.25;22.25;;;;;;;;5089556;27;28873;-83
2024/01/21 01:57:31;;;;;;;;;28.50;24.50;;;;;;;;5089096;27;28660;-83
2024/01/21 01:59:57;;;;;;;;;32.25;24.75;;;;;;;;5089288;28;28670;-82
2024/01/21 02:02:22;;;;;;;;;23.50;20.25;;;;;;;;5083709;27;28556;-84
2024/01/21 02:04:48;;;;;;;;;28.00;24.00;;;;;;;;5084622;28;28556;-85
2024/01/21 02:07:16;;;;;;;;;23.75;19.00;;;;;;;;5090232;27;29213;-84
2024/01/21 02:09:42;;;;;;;;;25.25;20.00;;;;;;;;5076851;28;28606;-85
2024/01/21 02:12:07;;;;;;;;;26.00;22.75;;;;;;;;5089051;28;28472;-83
2024/01/21 02:14:32;;;;;;;;;33.25;25.00;;;;;;;;5089975;27;28972;-82
2024/01/21 02:16:57;;;;;;;;;27.75;22.25;;;;;;;;5091496;28;28934;-83
2024/01/21 02:19:27;;;;;;;;;31.25;21.75;;;;;;;;5086589;27;28689;-81
2024/01/21 02:21:52;;;;;;;;;27.00;23.50;;;;;;;;5092353;27;28488;-82
2024/01/21 02:24:18;;;;;;;;;24.50;22.00;;;;;;;;5092145;27;28464;-81
2024/01/21 02:26:43;;;;;;;;;29.25;22.00;;;;;;;;5088706;28;28477;-81
2024/01/21 02:29:09;;;;;;;;;19.00;16.25;;;;;;;;5087340;27;29157;-80
2024/01/21 02:31:34;;;;;;;;;29.75;20.50;;;;;;;;5081695;27;28480;-81
2024/01/21 02:33:59;;;;;;;;;17.75;13.25;;;;;;;;5084691;28;28521;-81
2024/01/21 02:36:24;;;;;;;;;30.00;25.25;;;;;;;;5083599;28;28734;-83
2024/01/21 02:38:50;;;;;;;;;22.50;21.25;;;;;;;;5088211;28;28498;-82
2024/01/21 02:41:17;;;;;;;;;26.75;24.50;;;;;;;;5088531;28;28480;-82
2024/01/21 02:43:42;;;;;;;;;17.50;17.50;;;;;;;;5093080;27;28559;-82
2024/01/21 02:46:07;;;;;;;;;25.00;21.25;;;;;;;;5085202;28;30566;-82
2024/01/21 02:48:33;;;;;;;;;27.25;23.00;;;;;;;;5092401;28;29554;-80
2024/01/21 02:50:58;;;;;;;;;27.25;19.50;;;;;;;;5093429;28;28564;-82
2024/01/21 02:53:23;;;;;;;;;30.50;24.00;;;;;;;;5094541;27;27898;-82
2024/01/21 02:55:50;;;;;;;;;29.00;22.50;;;;;;;;5096623;28;29674;-81
2024/01/21 02:58:15;;;;;;;;;26.50;22.75;;;;;;;;5093654;28;30099;-81
2024/01/21 03:00:40;;;;;;;;;22.50;18.25;;;;;;;;5090438;28;28881;-82
2024/01/21 03:03:06;;;;;;;;;27.25;20.25;;;;;;;;5094471;27;28409;-82
2024/01/21 03:05:33;;;;;;;;;21.75;17.00;;;;;;;;5095474;27;28492;-83
2024/01/21 03:07:58;;;;;;;;;26.75;21.25;;;;;;;;5092755;27;28802;-81
2024/01/21 03:10:23;;;;;;;;;26.50;22.50;;;;;;;;5094374;27;29052;-81
2024/01/21 03:12:48;;;;;;;;;24.50;20.25;;;;;;;;5094249;28;28516;-82
2024/01/21 03:15:14;;;;;;;;;14.75;13.75;;;;;;;;5094520;27;28828;-82
2024/01/21 03:17:39;;;;;;;;;23.75;18.00;;;;;;;;5092949;28;30108;-82
2024/01/21 03:20:05;;;;;;;;;21.25;21.25;;;;;;;;5095499;27;28568;-82
2024/01/21 03:22:30;;;;;;;;;23.50;20.25;;;;;;;;5091887;27;28652;-82
2024/01/21 03:24:57;;;;;;;;;37.00;22.00;;;;;;;;5087558;27;29074;-81
2024/01/21 03:27:23;;;;;;;;;21.25;15.00;;;;;;;;5090776;28;31409;-81
2024/01/21 03:29:48;;;;;;;;;25.00;23.25;;;;;;;;5094111;28;27831;-82
2024/01/21 03:32:14;;;;;;;;;26.75;21.50;;;;;;;;5096919;28;27897;-83
2024/01/21 03:34:42;;;;;;;;;25.25;21.00;;;;;;;;5095740;28;30302;-82
2024/01/21 03:37:07;;;;;;;;;20.25;15.50;;;;;;;;5096632;27;28499;-82
2024/01/21 03:39:32;;;;;;;;;21.25;14.75;;;;;;;;5092273;28;28546;-82
2024/01/21 03:41:58;;;;;;;;;17.00;14.00;;;;;;;;5087748;28;28627;-81
2024/01/21 03:44:24;;;;;;;;;20.75;18.75;;;;;;;;5094196;28;28415;-81
2024/01/21 03:46:49;;;;;;;;;18.00;14.00;;;;;;;;5096495;28;28864;-81
2024/01/21 03:49:14;;;;;;;;;17.25;17.25;;;;;;;;5088011;28;28536;-82
2024/01/21 03:51:39;;;;;;;;;22.00;19.75;;;;;;;;5099310;27;28629;-81
2024/01/21 03:54:04;;;;;;;;;26.75;20.00;;;;;;;;5095918;28;28853;-81
2024/01/21 03:56:30;;;;;;;;;24.50;19.25;;;;;;;;5098361;28;28151;-83
2024/01/21 03:58:55;;;;;;;;;13.67;12.00;;;;;;;;5096081;28;28650;-82
2024/01/21 04:01:20;;;;;;;;;18.75;16.50;;;;;;;;5094603;28;28472;-82
2024/01/21 04:03:46;;;;;;;;;19.50;16.25;;;;;;;;5081519;28;29329;-83
2024/01/21 04:06:11;;;;;;;;;22.33;17.67;;;;;;;;5084682;27;29907;-83
2024/01/21 04:08:36;;;;;;;;;22.67;16.00;;;;;;;;5085760;27;28578;-80
2024/01/21 04:11:01;;;;;;;;;17.33;15.00;;;;;;;;5086069;28;28480;-83
2024/01/21 04:13:27;;;;;;;;;18.00;14.50;;;;;;;;5088614;28;29352;-81
2024/01/21 04:15:52;;;;;;;;;18.25;16.75;;;;;;;;5090716;28;31235;-82
2024/01/21 04:18:18;;;;;;;;;16.33;11.67;;;;;;;;5088656;28;28860;-83
2024/01/21 04:20:43;;;;;;;;;13.33;12.67;;;;;;;;5090062;28;28500;-84
2024/01/21 04:23:08;;;;;;;;;17.00;12.00;;;;;;;;5082241;28;28565;-84
2024/01/21 04:25:33;;;;;;;;;23.25;17.50;;;;;;;;5091509;27;29958;-84
2024/01/21 04:27:59;;;;;;;;;19.75;18.75;;;;;;;;5085907;27;28583;-83
2024/01/21 04:30:24;;;;;;;;;17.75;14.00;;;;;;;;5086617;28;28881;-81
2024/01/21 04:32:49;;;;;;;;;18.00;17.25;;;;;;;;5090780;27;28875;-82
2024/01/21 04:35:15;;;;;;;;;14.67;12.67;;;;;;;;5089626;28;30016;-82
2024/01/21 04:37:40;;;;;;;;;15.75;13.25;;;;;;;;5090467;27;28895;-82
2024/01/21 04:40:06;;;;;;;;;20.00;16.50;;;;;;;;5092023;27;28433;-82
2024/01/21 04:42:31;;;;;;;;;23.00;17.75;;;;;;;;5090886;28;28538;-82
2024/01/21 04:44:59;;;;;;;;;18.50;17.50;;;;;;;;5089618;28;30230;-82
2024/01/21 04:47:24;;;;;;;;;18.67;16.00;;;;;;;;5088216;27;29513;-84
2024/01/21 04:49:50;;;;;;;;;24.25;20.25;;;;;;;;5083030;28;28944;-83
2024/01/21 04:52:15;;;;;;;;;16.25;14.25;;;;;;;;5089489;27;29149;-84
2024/01/21 04:54:43;;;;;;;;;13.33;11.00;;;;;;;;5093890;27;28507;-86
2024/01/21 04:57:09;;;;;;;;;14.33;12.67;;;;;;;;5091880;28;28004;-85
2024/01/21 04:59:35;;;;;;;;;21.25;17.25;;;;;;;;5089541;28;28451;-85
2024/01/21 05:02:03;;;;;;;;;14.00;12.50;;;;;;;;5089377;28;29426;-84
2024/01/21 05:04:28;;;;;;;;;17.33;15.67;;;;;;;;5083525;28;29796;-85
2024/01/21 05:06:53;;;;;;;;;16.25;14.50;;;;;;;;5081854;27;28461;-83
2024/01/21 05:09:18;;;;;;;;;14.00;14.00;;;;;;;;5087720;28;28529;-84
2024/01/21 05:11:44;;;;;;;;;26.67;16.00;;;;;;;;5085923;28;30750;-82
2024/01/21 05:14:09;;;;;;;;;22.00;16.33;;;;;;;;5086184;27;28888;-82
2024/01/21 05:16:38;;;;;;;;;18.33;15.33;;;;;;;;5089714;27;28801;-83
2024/01/21 05:19:03;;;;;;;;;18.33;17.00;;;;;;;;5090707;27;28511;-84
2024/01/21 05:21:29;;;;;;;;;22.00;16.67;;;;;;;;5090292;28;29519;-82
2024/01/21 05:23:54;;;;;;;;;18.67;16.00;;;;;;;;5090525;28;29999;-83
2024/01/21 05:26:19;;;;;;;;;17.33;16.33;;;;;;;;5089546;27;28759;-84
2024/01/21 05:28:46;;;;;;;;;20.67;19.00;;;;;;;;5092056;27;28508;-82
2024/01/21 05:31:11;;;;;;;;;20.33;16.33;;;;;;;;5090837;28;28544;-81
2024/01/21 05:33:38;;;;;;;;;23.00;15.67;;;;;;;;5088381;28;31236;-82
2024/01/21 05:36:03;;;;;;;;;16.00;14.67;;;;;;;;5087248;28;28500;-84
2024/01/21 05:38:28;;;;;;;;;16.33;14.67;;;;;;;;5091557;27;28938;-83
2024/01/21 05:40:54;;;;;;;;;16.33;15.00;;;;;;;;5091081;28;28475;-82
2024/01/21 05:43:19;;;;;;;;;16.00;15.67;;;;;;;;5091201;27;28517;-82
2024/01/21 05:45:44;;;;;;;;;22.33;15.67;;;;;;;;5091679;28;28789;-82
2024/01/21 05:48:09;;;;;;;;;16.00;13.67;;;;;;;;5089280;28;28440;-83
2024/01/21 05:50:34;;;;;;;;;16.00;15.67;;;;;;;;5089828;28;29230;-83
2024/01/21 05:53:00;;;;;;;;;15.00;11.67;;;;;;;;5088742;28;30826;-84
2024/01/21 05:55:25;;;;;;;;;12.67;12.67;;;;;;;;5091722;28;28721;-82
2024/01/21 05:57:50;;;;;;;;;15.33;13.33;;;;;;;;5089442;28;28608;-83
2024/01/21 06:00:16;;;;;;;;;14.00;12.33;;;;;;;;5085983;27;28393;-83
2024/01/21 06:02:41;;;;;;;;;20.00;16.00;;;;;;;;5076534;27;28844;-82
2024/01/21 06:05:07;;;;;;;;;20.00;16.33;;;;;;;;5086009;28;28932;-81
2024/01/21 06:07:32;;;;;;;;;11.33;10.33;;;;;;;;5090031;27;28505;-81
2024/01/21 06:09:57;;;;;;;;;13.00;13.00;;;;;;;;5082913;28;28421;-81
2024/01/21 06:12:23;;;;;;;;;15.00;10.67;;;;;;;;5083396;28;28460;-81
2024/01/21 06:14:48;;;;;;;;;19.33;13.33;;;;;;;;5082571;28;28654;-83
2024/01/21 06:17:14;;;;;;;;;15.67;15.67;;;;;;;;5086910;28;28728;-83
2024/01/21 06:19:39;;;;;;;;;11.33;11.33;;;;;;;;5089383;28;29005;-81
2024/01/21 06:22:05;;;;;;;;;8.33;5.00;;;;;;;;5088587;28;29707;-81
2024/01/21 06:24:33;;;;;;;;;18.00;14.00;;;;;;;;5087589;28;29077;-82
2024/01/21 06:26:58;;;;;;;;;15.33;13.67;;;;;;;;5087777;28;28568;-79
2024/01/21 06:29:25;;;;;;;;;14.50;14.00;;;;;;;;5089629;28;28902;-82
2024/01/21 06:31:50;;;;;;;;;14.67;14.67;;;;;;;;5089449;28;28628;-83
2024/01/21 06:34:16;;;;;;;;;12.67;12.00;;;;;;;;5087555;28;28576;-82
2024/01/21 06:36:41;;;;;;;;;16.00;12.00;;;;;;;;5089253;28;28573;-80
2024/01/21 06:39:07;;;;;;;;;10.67;10.67;;;;;;;;5084408;28;28915;-82
2024/01/21 06:41:32;;;;;;;;;16.00;15.00;;;;;;;;5083949;27;28677;-83
2024/01/21 06:43:57;;;;;;;;;9.00;9.00;;;;;;;;5087229;28;28716;-80
2024/01/21 06:46:22;;;;;;;;;18.00;16.00;;;;;;;;5088585;28;28629;-81
2024/01/21 06:48:47;;;;;;;;;18.33;15.67;;;;;;;;5088553;27;28532;-80
2024/01/21 06:51:29;;;;;;;;;15.00;12.33;;;;;;;;5082155;28;29122;-83
2024/01/21 06:53:55;;;;;;;;;20.00;17.33;;;;;;;;5092383;27;28508;-83
2024/01/21 06:56:20;;;;;;;;;16.00;14.33;;;;;;;;5091655;27;28685;-82
2024/01/21 06:58:45;;;;;;;;;13.33;10.00;;;;;;;;5101170;27;29427;-80
2024/01/21 07:01:10;;;;;;;;;19.00;14.33;;;;;;;;5087029;27;28816;-80
2024/01/21 07:03:36;;;;;;;;;15.67;12.67;;;;;;;;5090187;28;28761;-81
2024/01/21 07:06:01;;;;;;;;;12.00;11.67;;;;;;;;5089458;28;28865;-82
2024/01/21 07:08:27;;;;;;;;;16.67;14.67;;;;;;;;5091333;28;28615;-80
2024/01/21 07:10:53;;;;;;;;;12.00;12.00;;;;;;;;5080935;27;29730;-84
2024/01/21 07:13:22;;;;;;;;;21.33;16.33;;;;;;;;5089410;28;28591;-81
2024/01/21 07:15:47;;;;;;;;;12.67;12.33;;;;;;;;5081305;27;28087;-78
2024/01/21 07:18:12;;;;;;;;;18.33;17.33;;;;;;;;5089811;27;28507;-78
2024/01/21 07:20:38;;;;;;;;;16.67;13.67;;;;;;;;5085624;27;28580;-80
2024/01/21 07:23:03;;;;;;;;;15.00;13.00;;;;;;;;5084543;28;28440;-80
2024/01/21 07:25:28;;;;;;;;;13.33;11.00;;;;;;;;5100839;27;28428;-78
2024/01/21 07:27:55;;;;;;;;;17.00;15.67;;;;;;;;5089058;28;28791;-79
2024/01/21 07:30:20;;;;;;;;;11.33;9.67;;;;;;;;5091926;28;28795;-81
2024/01/21 07:32:47;;;;;;;;;13.00;12.00;;;;;;;;5093435;27;28550;-89
2024/01/21 07:35:12;;;;;;;;;16.33;12.33;;;;;;;;5091942;28;28488;-80
2024/01/21 07:37:37;;;;;;;;;15.67;14.33;;;;;;;;5085077;28;28701;-81
2024/01/21 07:40:03;;;;;;;;;12.33;12.33;;;;;;;;5089847;28;28042;-79
2024/01/21 07:42:29;;;;;;;;;14.33;12.00;;;;;;;;5084618;28;29674;-82
2024/01/21 07:44:58;;;;;;;;;16.33;14.00;;;;;;;;5090977;28;28552;-82
2024/01/21 07:47:23;;;;;;;;;16.00;12.00;;;;;;;;5093206;27;28757;-83
2024/01/21 07:49:48;;;;;;;;;20.67;17.33;;;;;;;;5092647;28;29747;-83
2024/01/21 07:52:16;;;;;;;;;21.00;15.33;;;;;;;;5086717;27;28993;-84
2024/01/21 07:54:42;;;;;;;;;20.33;16.00;;;;;;;;5090008;28;28537;-82
2024/01/21 07:57:07;;;;;;;;;21.00;19.00;;;;;;;;5083045;27;28504;-83
2024/01/21 07:59:32;;;;;;;;;20.33;19.00;;;;;;;;5088141;28;29179;-80
2024/01/21 08:01:58;;;;;;;;;18.00;15.33;;;;;;;;5092213;28;28731;-83
2024/01/21 08:04:23;;;;;;;;;20.67;17.33;;;;;;;;5091199;28;28528;-83
2024/01/21 08:06:49;;;;;;;;;21.00;15.67;;;;;;;;5088118;28;28520;-84
2024/01/21 08:09:15;;;;;;;;;17.00;17.00;;;;;;;;5084082;28;28631;-83
2024/01/21 08:11:41;;;;;;;;;24.67;18.67;;;;;;;;5086585;28;28487;-83
2024/01/21 08:14:07;;;;;;;;;25.00;21.00;;;;;;;;5091254;28;28495;-82
2024/01/21 08:16:32;;;;;;;;;16.67;15.67;;;;;;;;5091308;27;28725;-82
2024/01/21 08:18:57;;;;;;;;;26.67;26.67;;;;;;;;5091503;27;28465;-82
2024/01/21 08:21:22;;;;;;;;;16.67;15.67;;;;;;;;5088170;28;28899;-83
2024/01/21 08:23:48;;;;;;;;;16.00;16.00;;;;;;;;5085644;28;28452;-81
2024/01/21 08:26:13;;;;;;;;;17.67;17.67;;;;;;;;5087537;28;29768;-81
2024/01/21 08:28:38;;;;;;;;;17.00;14.00;;;;;;;;5090452;28;29216;-84
2024/01/21 08:31:04;;;;;;;;;18.33;17.33;;;;;;;;5087906;27;28855;-80
2024/01/21 08:33:29;;;;;;;;;14.33;14.00;;;;;;;;5077672;28;28754;-81
2024/01/21 08:35:54;;;;;;;;;15.67;15.67;;;;;;;;5085283;28;28584;-83
2024/01/21 08:38:20;;;;;;;;;19.00;18.00;;;;;;;;5089765;28;28772;-83
2024/01/21 08:40:45;;;;;;;;;18.00;17.33;;;;;;;;5090700;28;28575;-84
2024/01/21 08:43:10;;;;;;;;;16.00;14.00;;;;;;;;5092659;28;28387;-86
2024/01/21 08:45:35;;;;;;;;;18.00;17.00;;;;;;;;5091956;28;29278;-83
2024/01/21 08:48:01;;;;;;;;;30.00;26.33;;;;;;;;5090290;28;28386;-81
2024/01/21 08:50:26;;;;;;;;;23.00;18.33;;;;;;;;5088934;27;28568;-82
2024/01/21 08:52:51;;;;;;;;;18.67;14.67;;;;;;;;5089908;28;28693;-81
2024/01/21 08:55:16;;;;;;;;;27.33;21.33;;;;;;;;5088231;27;28884;-81
2024/01/21 08:57:42;;;;;;;;;23.67;21.00;;;;;;;;5085407;28;28815;-81
2024/01/21 09:00:08;;;;;;;;;20.00;18.67;;;;;;;;5089327;28;28626;-82
2024/01/21 09:02:34;;;;;;;;;15.33;14.33;;;;;;;;5088126;28;28880;-81
2024/01/21 09:04:59;;;;;;;;;17.00;13.33;;;;;;;;5083369;28;29690;-81
2024/01/21 09:07:24;;;;;;;;;17.33;15.33;;;;;;;;5078579;27;30743;-80
2024/01/21 09:09:50;;;;;;;;;13.00;13.00;;;;;;;;5080000;28;27879;-81
2024/01/21 09:12:16;;;;;;;;;21.33;17.67;;;;;;;;5087889;27;28462;-81
2024/01/21 09:14:41;;;;;;;;;16.33;14.33;;;;;;;;5084254;28;29166;-81
2024/01/21 09:17:06;;;;;;;;;15.67;14.00;;;;;;;;5088117;28;31027;-81
2024/01/21 09:19:32;;;;;;;;;14.33;13.67;;;;;;;;5087571;28;28913;-82
2024/01/21 09:21:57;;;;;;;;;13.00;12.67;;;;;;;;5087855;28;28823;-81
2024/01/21 09:24:22;;;;;;;;;12.00;12.00;;;;;;;;5088074;28;30987;-82
2024/01/21 09:26:48;;;;;;;;;13.33;12.00;;;;;;;;5090296;27;28489;-82
2024/01/21 09:29:16;;;;;;;;;14.33;13.00;;;;;;;;5088903;28;28961;-84
2024/01/21 09:31:42;;;;;;;;;17.00;14.67;;;;;;;;5080225;28;29547;-82
2024/01/21 09:34:08;;;;;;;;;13.00;12.33;;;;;;;;5084639;28;30263;-83
2024/01/21 09:36:34;;;;;;;;;16.00;15.00;;;;;;;;5087317;28;30290;-82
2024/01/21 09:39:02;;;;;;;;;24.00;17.67;;;;;;;;5089180;27;28947;-84
2024/01/21 09:41:37;;;;;;;;;18.00;16.00;;;;;;;;5087671;27;28594;-83
2024/01/21 09:44:03;;;;;;;;;19.00;16.33;;;;;;;;5088865;27;28843;-80
2024/01/21 09:46:29;;;;;;;;;17.67;16.67;;;;;;;;5099926;27;30375;-83
2024/01/21 09:48:56;;;;;;;;;13.33;13.33;;;;;;;;5084238;27;28527;-82
2024/01/21 09:51:22;;;;;;;;;14.33;12.00;;;;;;;;5084686;27;28520;-83
2024/01/21 09:53:48;;;;;;;;;11.67;11.67;;;;;;;;5078059;28;28836;-82
2024/01/21 09:56:13;;;;;;;;;11.00;11.00;;;;;;;;5082572;28;30557;-82
2024/01/21 09:58:46;;;;;;;;;15.00;15.00;;;;;;;;5086156;28;28229;-81
2024/01/21 10:01:12;;;;;;;;;15.00;15.00;;;;;;;;5082146;27;28442;-82
2024/01/21 10:03:38;;;;;;;;;15.00;15.00;;;;;;;;5085114;28;29235;-84
2024/01/21 10:06:04;;;;;;;;;15.00;12.33;;;;;;;;5090899;28;29710;-83
2024/01/21 10:08:31;;;;;;;;;16.00;14.67;;;;;;;;5090102;27;28797;-83
2024/01/21 10:10:59;;;;;;;;;16.67;14.00;;;;;;;;5089414;27;28554;-82
2024/01/21 10:13:26;;;;;;;;;15.33;15.00;;;;;;;;5087752;28;28669;-82
2024/01/21 10:15:55;;;;;;;;;13.67;12.33;;;;;;;;5092960;27;28628;-86
2024/01/21 10:18:21;;;;;;;;;17.33;15.33;;;;;;;;5088503;27;28842;-81
2024/01/21 10:20:47;;;;;;;;;18.00;16.00;;;;;;;;5089690;28;28643;-83
2024/01/21 10:23:12;;;;;;;;;14.33;13.00;;;;;;;;5090255;28;29753;-83
2024/01/21 10:25:40;;;;;;;;;18.33;16.00;;;;;;;;5089916;28;28885;-84
2024/01/21 10:28:06;;;;;;;;;19.67;16.67;;;;;;;;5093256;27;29771;-82
2024/01/21 10:30:31;;;;;;;;;11.00;9.00;;;;;;;;5093851;27;28507;-82
2024/01/21 10:32:56;;;;;;;;;13.00;12.67;;;;;;;;5093843;28;29012;-82
2024/01/21 10:35:22;;;;;;;;;12.33;12.00;;;;;;;;5092889;27;29795;-81
2024/01/21 10:37:47;;;;;;;;;12.67;12.33;;;;;;;;5096115;28;28681;-82
2024/01/21 10:40:12;;;;;;;;;16.67;13.00;;;;;;;;5087681;28;28538;-82
2024/01/21 10:42:41;;;;;;;;;11.67;11.33;;;;;;;;5089897;27;28869;-79
2024/01/21 10:45:06;;;;;;;;;15.67;13.33;;;;;;;;5091197;27;28468;-83
2024/01/21 10:47:33;;;;;;;;;16.00;15.00;;;;;;;;5093998;27;28428;-82
2024/01/21 10:49:59;;;;;;;;;17.00;17.00;;;;;;;;5094093;27;28547;-82
2024/01/21 10:52:24;;;;;;;;;16.33;14.00;;;;;;;;5092873;28;28610;-83
2024/01/21 10:54:49;;;;;;;;;16.00;12.67;;;;;;;;5094127;27;28740;-82
2024/01/21 10:57:15;;;;;;;;;14.67;11.67;;;;;;;;5089033;28;28613;-83
2024/01/21 10:59:40;;;;;;;;;13.67;13.67;;;;;;;;5092033;27;28764;-81
2024/01/21 11:02:07;;;;;;;;;16.00;12.33;;;;;;;;5090976;28;28798;-82
2024/01/21 11:04:34;;;;;;;;;15.33;13.00;;;;;;;;5079852;28;28934;-82
2024/01/21 11:07:01;;;;;;;;;10.00;9.00;;;;;;;;5091439;27;29173;-82
2024/01/21 11:09:28;;;;;;;;;15.33;14.00;;;;;;;;5102693;27;28425;-82
2024/01/21 11:11:54;;;;;;;;;18.67;14.33;;;;;;;;5091021;28;29755;-82
2024/01/21 11:14:38;;;;;;;;;14.33;14.00;;;;;;;;5090878;28;28504;-82
2024/01/21 11:17:23;;;;;;;;;15.33;12.00;;;;;;;;5104965;27;29182;-89
2024/01/21 11:19:56;;;;;;;;;10.67;9.00;;;;;;;;5077616;27;28763;-84
2024/01/21 11:22:23;;;;;;;;;11.67;11.67;;;;;;;;5089373;28;29983;-85
2024/01/21 11:24:51;;;;;;;;;12.00;9.33;;;;;;;;5089253;28;29290;-83
2024/01/21 11:27:17;;;;;;;;;13.00;11.00;;;;;;;;5092238;28;28469;-84
2024/01/21 11:29:44;;;;;;;;;15.00;10.67;;;;;;;;5092433;27;28882;-84
2024/01/21 11:32:12;;;;;;;;;19.33;13.33;;;;;;;;5087118;27;29049;-83
2024/01/21 11:34:41;;;;;;;;;17.67;16.00;;;;;;;;5088848;27;28546;-83
2024/01/21 11:37:08;;;;;;;;;12.67;12.67;;;;;;;;5086868;27;28516;-84
2024/01/21 11:39:34;;;;;;;;;12.00;11.00;;;;;;;;5087219;28;29077;-83
2024/01/21 11:42:02;;;;;;;;;17.33;16.33;;;;;;;;5088658;28;28645;-82
2024/01/21 11:44:28;;;;;;;;;16.00;15.67;;;;;;;;5090587;27;29188;-83
2024/01/21 11:46:56;;;;;;;;;16.33;12.00;;;;;;;;5091921;27;28762;-83
2024/01/21 11:49:21;;;;;;;;;16.67;14.67;;;;;;;;5089615;28;28673;-85
2024/01/21 11:51:47;;;;;;;;;15.67;15.33;;;;;;;;5092709;27;28527;-83
2024/01/21 11:54:12;;;;;;;;;16.00;13.33;;;;;;;;5090297;27;28978;-82
2024/01/21 11:56:38;;;;;;;;;15.00;14.33;;;;;;;;5091130;28;29080;-81
2024/01/21 11:59:08;;;;;;;;;17.00;13.00;;;;;;;;5089787;28;28656;-83
2024/01/21 12:01:36;;;;;;;;;15.67;13.33;;;;;;;;5088228;27;28364;-82
2024/01/21 12:04:07;;;;;;;;;17.00;14.67;;;;;;;;5087310;27;28729;-80
2024/01/21 12:06:34;;;;;;;;;15.67;12.67;;;;;;;;5094970;27;28482;-85
2024/01/21 12:09:00;;;;;;;;;17.00;15.00;;;;;;;;5097427;27;28465;-86
2024/01/21 12:11:26;;;;;;;;;20.33;15.00;;;;;;;;5091052;27;28982;-80
2024/01/21 12:16:52;;;;;;;;;15.00;15.00;;;;;;;;5082747;28;28904;-82
2024/01/21 12:19:53;;;;;;;;;18.67;15.33;;;;;;;;5091415;27;28862;-82
2024/01/21 12:22:42;;;;;;;;;18.67;16.00;;;;;;;;5086047;27;28540;-82
2024/01/21 12:25:36;;;;;;;;;20.00;16.00;;;;;;;;5089999;28;28900;-82
2024/01/21 12:28:08;;;;;;;;;15.33;14.00;;;;;;;;5089731;28;28903;-82
2024/01/21 12:31:00;;;;;;;;;16.00;15.00;;;;;;;;5087597;27;28565;-83
2024/01/21 12:33:31;;;;;;;;;22.00;14.67;;;;;;;;5084714;28;28655;-81
2024/01/21 12:36:08;;;;;;;;;20.33;15.67;;;;;;;;5090957;27;30053;-83
2024/01/21 12:39:02;;;;;;;;;;;;;;;;;;;;;
2024/01/21 12:41:41;;;;;;;;;18.33;14.00;;;;;;;;5090650;28;53663;-80
2024/01/21 12:44:36;;;;;;;;;25.00;19.67;;;;;;;;5095069;27;29304;-83
2024/01/21 12:47:44;;;;;;;;;;;;;;;;;;;;;
2024/01/21 13:03:26;;;;;;;;;15.33;12.00;;;;;;;;5044853;28;29042;-83
2024/01/21 13:09:31;;;;;;;;;17.00;15.00;;;;;;;;4986135;28;28762;-82
2024/01/21 13:39:25;;;;;;;;;16.33;14.00;;;;;;;;4967009;28;29261;-81
2024/01/21 13:42:21;;;;;;;;;;;;;;;;;;;;;
2024/01/21 13:45:16;;;;;;;;;;;;;;;;;;;;;
2024/01/21 13:48:21;;;;;;;;;;;;;;;;;;;;;
2024/01/21 13:53:48;;;;;;;;;16.67;15.67;;;;;;;;5028455;28;28870;-83
2024/01/21 13:56:15;;;;;;;;;15.33;14.00;;;;;;;;5013758;28;29257;-82
2024/01/21 13:58:49;;;;;;;;;10.00;9.00;;;;;;;;5043478;27;28481;-82
2024/01/21 14:01:17;;;;;;;;;16.33;13.67;;;;;;;;5090826;28;28525;-81
2024/01/21 14:03:43;;;;;;;;;16.00;13.00;;;;;;;;5090897;28;29199;-79
2024/01/21 14:06:22;;;;;;;;;17.33;14.67;;;;;;;;5088974;28;28727;-79
2024/01/21 14:08:49;;;;;;;;;15.67;14.00;;;;;;;;5082590;28;29326;-79
2024/01/21 14:11:15;;;;;;;;;18.33;15.00;;;;;;;;5084287;28;28553;-79
2024/01/21 14:13:41;;;;;;;;;14.00;9.67;;;;;;;;5085635;27;28417;-81
2024/01/21 14:16:08;;;;;;;;;17.33;15.67;;;;;;;;5090799;27;28751;-84
2024/01/21 14:21:57;;;;;;;;;20.00;18.33;;;;;;;;5028913;28;28716;-84
2024/01/21 14:27:42;;;;;;;;;17.33;16.00;;;;;;;;4954240;28;28815;-81
2024/01/21 14:30:23;;;;;;;;;20.00;14.67;;;;;;;;4948634;28;28505;-81
2024/01/21 14:32:48;;;;;;;;;21.00;15.67;;;;;;;;5045759;27;29639;-79
2024/01/21 14:35:14;;;;;;;;;19.00;14.33;;;;;;;;5090917;28;28708;-80
2024/01/21 14:37:39;;;;;;;;;16.00;13.00;;;;;;;;5082579;28;29136;-83
2024/01/21 14:40:04;;;;;;;;;16.67;15.67;;;;;;;;5084611;27;30988;-80
2024/01/21 14:42:30;;;;;;;;;16.00;15.00;;;;;;;;5091297;28;28629;-80
2024/01/21 14:44:55;;;;;;;;;14.33;12.33;;;;;;;;5092122;28;28974;-81
2024/01/21 14:47:21;;;;;;;;;18.00;14.00;;;;;;;;5092374;27;28652;-82
2024/01/21 14:49:47;;;;;;;;;18.00;16.33;;;;;;;;5083416;27;28449;-81
2024/01/21 14:52:12;;;;;;;;;21.67;19.00;;;;;;;;5089828;28;28879;-80
2024/01/21 14:54:37;;;;;;;;;18.67;16.33;;;;;;;;5086455;28;28381;-79
2024/01/21 14:57:03;;;;;;;;;20.33;18.33;;;;;;;;5089047;28;28610;-82
2024/01/21 14:59:28;;;;;;;;;19.67;17.33;;;;;;;;5090076;27;30582;-81
2024/01/21 15:01:53;;;;;;;;;24.67;19.67;;;;;;;;5091443;28;28621;-81
2024/01/21 15:04:19;;;;;;;;;26.00;19.00;;;;;;;;5087613;27;29114;-81
2024/01/21 15:06:44;;;;;;;;;18.00;14.00;;;;;;;;5090530;28;28801;-80
2024/01/21 15:09:09;;;;;;;;;17.67;15.00;;;;;;;;5084607;28;29153;-80
2024/01/21 15:11:35;;;;;;;;;23.67;17.00;;;;;;;;5076140;28;28730;-81
2024/01/21 15:14:04;;;;;;;;;21.67;17.67;;;;;;;;5087193;28;28823;-79
2024/01/21 15:16:29;;;;;;;;;16.00;15.00;;;;;;;;5082576;27;29338;-79
2024/01/21 15:18:55;;;;;;;;;18.00;11.33;;;;;;;;5085480;28;29152;-80
2024/01/21 15:21:21;;;;;;;;;17.33;17.00;;;;;;;;5085001;28;28496;-79
2024/01/21 15:23:46;;;;;;;;;20.00;17.33;;;;;;;;5090474;28;28557;-80
2024/01/21 15:26:11;;;;;;;;;18.00;15.67;;;;;;;;5091641;28;28449;-79
2024/01/21 15:28:37;;;;;;;;;17.33;16.33;;;;;;;;5079387;27;28410;-79
2024/01/21 15:31:02;;;;;;;;;19.00;14.33;;;;;;;;5091787;28;28224;-80
2024/01/21 15:33:27;;;;;;;;;20.67;18.33;;;;;;;;5094882;28;28522;-81